Time;durP1;ratioP1;P1;durP2;ratioP2;P2;SDS_P1;SDS_P2;PMS_P1;PMS_P2;Temp;Humidity;BMP_temperature;BMP_pressure;BME280_temperature;BME280_humidity;BME280_pressure;Samples;Min_cycle;Max_cycle;Signal;HPM_P1;HPM_P2
2019/09/01 00:00:54;;;;;;;4;3.4;;;;;;;18.92;74.53809;94902.86;;;;
2019/09/01 00:01:55;;;;;;;4;3.4;;;;;;;18.92;74.53809;94902.86;;;;
2019/09/01 00:02:57;;;;;;;3.8;3.15;;;;;;;18.94;74.64844;94906.25;;;;
2019/09/01 00:03:58;;;;;;;3.8;3.15;;;;;;;18.94;74.64844;94906.25;;;;
2019/09/01 00:05:00;;;;;;;3.8;3.15;;;;;;;18.94;74.64844;94906.25;;;;
2019/09/01 00:06:02;;;;;;;3.85;3.5;;;;;;;18.94;74.6377;94906.25;;;;
2019/09/01 00:07:03;;;;;;;3.85;3.5;;;;;;;18.94;74.6377;94906.25;;;;
2019/09/01 00:08:04;;;;;;;3.900001;3.35;;;;;;;18.93;74.67969;94904.06;;;;
2019/09/01 00:09:06;;;;;;;3.900001;3.35;;;;;;;18.93;74.67969;94904.06;;;;
2019/09/01 00:10:08;;;;;;;3.900001;3.35;;;;;;;18.93;74.67969;94904.06;;;;
2019/09/01 00:11:09;;;;;;;4.3;3.6;;;;;;;18.93;74.84375;94906.38;;;;
2019/09/01 00:12:11;;;;;;;4.3;3.6;;;;;;;18.93;74.84375;94906.38;;;;
2019/09/01 00:13:12;;;;;;;5.15;3.5;;;;;;;18.92;74.99414;94904.36;;;;
2019/09/01 00:14:14;;;;;;;5.15;3.5;;;;;;;18.92;74.99414;94904.36;;;;
2019/09/01 00:15:15;;;;;;;5.15;3.5;;;;;;;18.92;74.99414;94904.36;;;;
2019/09/01 00:16:17;;;;;;;4;3.7;;;;;;;18.9;75.12402;94907.81;;;;
2019/09/01 00:17:19;;;;;;;4;3.7;;;;;;;18.9;75.12402;94907.81;;;;
2019/09/01 00:18:20;;;;;;;3.75;3.45;;;;;;;18.88;75.17383;94913.31;;;;
2019/09/01 00:19:21;;;;;;;3.75;3.45;;;;;;;18.88;75.17383;94913.31;;;;
2019/09/01 00:20:22;;;;;;;3.75;3.45;;;;;;;18.88;75.17383;94913.31;;;;
2019/09/01 00:21:24;;;;;;;3.9;3.5;;;;;;;18.85;75.35449;94909.81;;;;
2019/09/01 00:22:26;;;;;;;3.9;3.5;;;;;;;18.85;75.35449;94909.81;;;;
2019/09/01 00:23:27;;;;;;;3.9;3.5;;;;;;;18.85;75.35449;94909.81;;;;
2019/09/01 00:24:28;;;;;;;4.149999;3.65;;;;;;;18.82;75.5459;94916.27;;;;
2019/09/01 00:25:30;;;;;;;4.149999;3.65;;;;;;;18.82;75.5459;94916.27;;;;
2019/09/01 00:26:36;;;;;;;4.949999;3.55;;;;;;;18.78;75.47168;94910.74;;;;
2019/09/01 00:27:37;;;;;;;4.949999;3.55;;;;;;;18.78;75.47168;94910.74;;;;
2019/09/01 00:28:39;;;;;;;4.949999;3.55;;;;;;;18.78;75.47168;94910.74;;;;
2019/09/01 00:29:40;;;;;;;3.6;3.299999;;;;;;;18.74;75.63965;94922.41;;;;
2019/09/01 00:30:41;;;;;;;3.6;3.299999;;;;;;;18.74;75.63965;94922.41;;;;
2019/09/01 00:31:47;;;;;;;3.55;3.25;;;;;;;18.69;75.7959;94919.76;;;;
2019/09/01 00:32:48;;;;;;;3.55;3.25;;;;;;;18.69;75.7959;94919.76;;;;
2019/09/01 00:33:49;;;;;;;3.55;3.25;;;;;;;18.69;75.7959;94919.76;;;;
2019/09/01 00:34:50;;;;;;;4.3;3.55;;;;;;;18.63;76.01465;94917.24;;;;
2019/09/01 00:35:51;;;;;;;4.3;3.55;;;;;;;18.63;76.01465;94917.24;;;;
2019/09/01 00:36:53;;;;;;;3.8;3.4;;;;;;;18.56;76.33008;94922.26;;;;
2019/09/01 00:37:54;;;;;;;3.8;3.4;;;;;;;18.56;76.33008;94922.26;;;;
2019/09/01 00:38:55;;;;;;;3.8;3.4;;;;;;;18.56;76.33008;94922.26;;;;
2019/09/01 00:39:56;;;;;;;3.8;3.5;;;;;;;18.49;76.57715;94914.15;;;;
2019/09/01 00:40:57;;;;;;;3.8;3.5;;;;;;;18.49;76.57715;94914.15;;;;
2019/09/01 00:41:58;;;;;;;3.9;3.55;;;;;;;18.41;77.03223;94924.33;;;;
2019/09/01 00:43:00;;;;;;;3.9;3.55;;;;;;;18.41;77.03223;94924.33;;;;
2019/09/01 00:44:01;;;;;;;3.9;3.55;;;;;;;18.41;77.03223;94924.33;;;;
2019/09/01 00:45:02;;;;;;;4.1;3.5;;;;;;;18.32;77.60547;94910.5;;;;
2019/09/01 00:46:06;;;;;;;4.1;3.5;;;;;;;18.32;77.60547;94910.5;;;;
2019/09/01 00:47:07;;;;;;;4.1;3.5;;;;;;;18.32;77.60547;94910.5;;;;
2019/09/01 00:48:08;;;;;;;3.6;3.2;;;;;;;18.24;78.19922;94912.13;;;;
2019/09/01 00:49:10;;;;;;;3.6;3.2;;;;;;;18.24;78.19922;94912.13;;;;
2019/09/01 00:50:11;;;;;;;3.7;3.3;;;;;;;18.16;78.43652;94905.38;;;;
2019/09/01 00:51:14;;;;;;;3.7;3.3;;;;;;;18.16;78.43652;94905.38;;;;
2019/09/01 00:52:15;;;;;;;3.7;3.3;;;;;;;18.16;78.43652;94905.38;;;;
2019/09/01 00:53:16;;;;;;;3.6;3.3;;;;;;;18.1;78.80664;94900.11;;;;
2019/09/01 00:54:17;;;;;;;3.6;3.3;;;;;;;18.1;78.80664;94900.11;;;;
2019/09/01 00:55:19;;;;;;;3.400001;3.1;;;;;;;18.06;78.80078;94905.89;;;;
2019/09/01 00:56:20;;;;;;;3.400001;3.1;;;;;;;18.06;78.80078;94905.89;;;;
2019/09/01 00:57:22;;;;;;;3.400001;3.1;;;;;;;18.06;78.80078;94905.89;;;;
2019/09/01 00:58:23;;;;;;;3.65;3.15;;;;;;;18.03;78.96777;94906.08;;;;
2019/09/01 00:59:24;;;;;;;3.65;3.15;;;;;;;18.03;78.96777;94906.08;;;;
2019/09/01 01:00:25;;;;;;;3.65;3.15;;;;;;;18.03;78.96777;94906.08;;;;
2019/09/01 01:01:28;;;;;;;3.55;3.25;;;;;;;18.02;79.15039;94904.88;;;;
2019/09/01 01:02:30;;;;;;;3.55;3.25;;;;;;;18.02;79.15039;94904.88;;;;
2019/09/01 01:03:31;;;;;;;4.25;3;;;;;;;18.02;79.05273;94904.47;;;;
2019/09/01 01:04:33;;;;;;;4.25;3;;;;;;;18.02;79.05273;94904.47;;;;
2019/09/01 01:05:35;;;;;;;4.25;3;;;;;;;18.02;79.05273;94904.47;;;;
2019/09/01 01:06:36;;;;;;;4;3.1;;;;;;;18.03;79.18457;94904.3;;;;
2019/09/01 01:07:37;;;;;;;4;3.1;;;;;;;18.03;79.18457;94904.3;;;;
2019/09/01 01:08:38;;;;;;;3.7;3.3;;;;;;;18.02;79.10742;94896.26;;;;
2019/09/01 01:09:40;;;;;;;3.7;3.3;;;;;;;18.02;79.10742;94896.26;;;;
2019/09/01 01:10:41;;;;;;;3.7;3.3;;;;;;;18.02;79.10742;94896.26;;;;
2019/09/01 01:11:42;;;;;;;3.6;3.15;;;;;;;18.02;78.82422;94902.14;;;;
2019/09/01 01:12:44;;;;;;;3.6;3.15;;;;;;;18.02;78.82422;94902.14;;;;
2019/09/01 01:13:45;;;;;;;3.8;3.1;;;;;;;18.01;79.32422;94896.4;;;;
2019/09/01 01:14:46;;;;;;;3.8;3.1;;;;;;;18.01;79.32422;94896.4;;;;
2019/09/01 01:15:47;;;;;;;3.8;3.1;;;;;;;18.01;79.32422;94896.4;;;;
2019/09/01 01:16:49;;;;;;;3.5;3.2;;;;;;;18;79.375;94897.52;;;;
2019/09/01 01:17:50;;;;;;;3.5;3.2;;;;;;;18;79.375;94897.52;;;;
2019/09/01 01:18:51;;;;;;;3.5;3.2;;;;;;;18;79.375;94897.52;;;;
2019/09/01 01:19:53;;;;;;;3.7;3.3;;;;;;;17.98;79.42676;94903.41;;;;
2019/09/01 01:20:54;;;;;;;3.7;3.3;;;;;;;17.98;79.42676;94903.41;;;;
2019/09/01 01:21:55;;;;;;;3.85;3.45;;;;;;;17.96;79.46484;94903.43;;;;
2019/09/01 01:22:56;;;;;;;3.85;3.45;;;;;;;17.96;79.46484;94903.43;;;;
2019/09/01 01:23:58;;;;;;;3.85;3.45;;;;;;;17.96;79.46484;94903.43;;;;
2019/09/01 01:24:59;;;;;;;3.45;3.15;;;;;;;17.94;79.7334;94907;;;;
2019/09/01 01:26:00;;;;;;;3.45;3.15;;;;;;;17.94;79.7334;94907;;;;
2019/09/01 01:27:01;;;;;;;3.7;3.15;;;;;;;17.91;80.36914;94904.72;;;;
2019/09/01 01:28:03;;;;;;;3.7;3.15;;;;;;;17.91;80.36914;94904.72;;;;
2019/09/01 01:29:04;;;;;;;3.7;3.15;;;;;;;17.91;80.36914;94904.72;;;;
2019/09/01 01:30:05;;;;;;;3.65;3.2;;;;;;;17.88;80.52637;94901.35;;;;
2019/09/01 01:31:08;;;;;;;3.65;3.2;;;;;;;17.88;80.52637;94901.35;;;;
2019/09/01 01:32:09;;;;;;;4.25;3.1;;;;;;;17.85;80.46777;94900.42;;;;
2019/09/01 01:33:11;;;;;;;4.25;3.1;;;;;;;17.85;80.46777;94900.42;;;;
2019/09/01 01:34:12;;;;;;;4.25;3.1;;;;;;;17.85;80.46777;94900.42;;;;
2019/09/01 01:35:13;;;;;;;4.3;3.1;;;;;;;17.82;80.41699;94904.28;;;;
2019/09/01 01:36:17;;;;;;;4.3;3.1;;;;;;;17.82;80.41699;94904.28;;;;
2019/09/01 01:37:19;;;;;;;4.3;3.1;;;;;;;17.82;80.41699;94904.28;;;;
2019/09/01 01:38:20;;;;;;;3.65;3.1;;;;;;;17.79;80.54395;94910.33;;;;
2019/09/01 01:39:21;;;;;;;3.65;3.1;;;;;;;17.79;80.54395;94910.33;;;;
2019/09/01 01:40:22;;;;;;;3.55;3.15;;;;;;;17.76;80.66699;94915.39;;;;
2019/09/01 01:41:26;;;;;;;3.55;3.15;;;;;;;17.76;80.66699;94915.39;;;;
2019/09/01 01:42:27;;;;;;;3.55;3.15;;;;;;;17.76;80.66699;94915.39;;;;
2019/09/01 01:43:28;;;;;;;3.45;3.15;;;;;;;17.74;80.88086;94913.09;;;;
2019/09/01 01:44:29;;;;;;;3.45;3.15;;;;;;;17.74;80.88086;94913.09;;;;
2019/09/01 01:45:31;;;;;;;3.75;3.15;;;;;;;17.72;80.87793;94903.03;;;;
2019/09/01 01:46:32;;;;;;;3.75;3.15;;;;;;;17.72;80.87793;94903.03;;;;
2019/09/01 01:47:33;;;;;;;3.75;3.15;;;;;;;17.72;80.87793;94903.03;;;;
2019/09/01 01:48:35;;;;;;;3.25;2.95;;;;;;;17.71;81.08398;94908.09;;;;
2019/09/01 01:49:36;;;;;;;3.25;2.95;;;;;;;17.71;81.08398;94908.09;;;;
2019/09/01 01:50:37;;;;;;;3.25;2.95;;;;;;;17.71;81.08398;94908.09;;;;
2019/09/01 01:51:39;;;;;;;3.400001;3.1;;;;;;;17.69;81.34082;94907.56;;;;
2019/09/01 01:52:41;;;;;;;3.400001;3.1;;;;;;;17.69;81.34082;94907.56;;;;
2019/09/01 01:53:42;;;;;;;3.5;3.05;;;;;;;17.68;81.43555;94908.64;;;;
2019/09/01 01:54:43;;;;;;;3.5;3.05;;;;;;;17.68;81.43555;94908.64;;;;
2019/09/01 01:55:44;;;;;;;3.5;3.05;;;;;;;17.68;81.43555;94908.64;;;;
2019/09/01 01:56:45;;;;;;;4.3;3.25;;;;;;;17.68;81.84766;94914.26;;;;
2019/09/01 01:57:47;;;;;;;4.3;3.25;;;;;;;17.68;81.84766;94914.26;;;;
2019/09/01 01:58:48;;;;;;;3.25;2.9;;;;;;;17.67;81.78125;94912.62;;;;
2019/09/01 01:59:50;;;;;;;3.25;2.9;;;;;;;17.67;81.78125;94912.62;;;;
2019/09/01 02:00:51;;;;;;;3.25;2.9;;;;;;;17.67;81.78125;94912.62;;;;
2019/09/01 02:01:52;;;;;;;5.2;3.2;;;;;;;17.65;81.74512;94918.92;;;;
2019/09/01 02:02:54;;;;;;;5.2;3.2;;;;;;;17.65;81.74512;94918.92;;;;
2019/09/01 02:03:55;;;;;;;5.2;3.2;;;;;;;17.65;81.74512;94918.92;;;;
2019/09/01 02:04:56;;;;;;;3.3;3;;;;;;;17.64;82.02539;94916.77;;;;
2019/09/01 02:05:57;;;;;;;3.3;3;;;;;;;17.64;82.02539;94916.77;;;;
2019/09/01 02:06:59;;;;;;;3.25;2.9;;;;;;;17.63;82.20801;94911.02;;;;
2019/09/01 02:08:00;;;;;;;3.25;2.9;;;;;;;17.63;82.20801;94911.02;;;;
2019/09/01 02:09:03;;;;;;;3.25;2.9;;;;;;;17.63;82.20801;94911.02;;;;
2019/09/01 02:10:05;;;;;;;3.7;3.1;;;;;;;17.64;82.54395;94904.06;;;;
2019/09/01 02:11:07;;;;;;;3.7;3.1;;;;;;;17.64;82.54395;94904.06;;;;
2019/09/01 02:12:08;;;;;;;4.4;3.3;;;;;;;17.66;82.39746;94906.75;;;;
2019/09/01 02:13:10;;;;;;;4.4;3.3;;;;;;;17.66;82.39746;94906.75;;;;
2019/09/01 02:14:11;;;;;;;4.4;3.3;;;;;;;17.66;82.39746;94906.75;;;;
2019/09/01 02:15:13;;;;;;;3.45;3.15;;;;;;;17.7;82.44824;94899.78;;;;
2019/09/01 02:16:17;;;;;;;3.45;3.15;;;;;;;17.7;82.44824;94899.78;;;;
2019/09/01 02:17:18;;;;;;;3.600001;3.1;;;;;;;17.73;82.50781;94900.97;;;;
2019/09/01 02:18:20;;;;;;;3.600001;3.1;;;;;;;17.73;82.50781;94900.97;;;;
2019/09/01 02:19:21;;;;;;;3.600001;3.1;;;;;;;17.73;82.50781;94900.97;;;;
2019/09/01 02:20:22;;;;;;;4.25;3.2;;;;;;;17.78;82.5918;94902.81;;;;
2019/09/01 02:21:28;;;;;;;4.25;3.2;;;;;;;17.78;82.5918;94902.81;;;;
2019/09/01 02:22:29;;;;;;;3.25;2.95;;;;;;;17.82;82.58984;94902.37;;;;
2019/09/01 02:23:30;;;;;;;3.25;2.95;;;;;;;17.82;82.58984;94902.37;;;;
2019/09/01 02:24:31;;;;;;;3.25;2.95;;;;;;;17.82;82.58984;94902.37;;;;
2019/09/01 02:25:33;;;;;;;3.5;3.2;;;;;;;17.89;82.36328;94900.64;;;;
2019/09/01 02:26:34;;;;;;;3.5;3.2;;;;;;;17.89;82.36328;94900.64;;;;
2019/09/01 02:27:35;;;;;;;3.5;3.2;;;;;;;17.89;82.36328;94900.64;;;;
2019/09/01 02:28:37;;;;;;;3.85;3.25;;;;;;;17.96;82.20215;94899.73;;;;
2019/09/01 02:29:38;;;;;;;3.85;3.25;;;;;;;17.96;82.20215;94899.73;;;;
2019/09/01 02:30:39;;;;;;;4;3;;;;;;;18.02;82.39844;94898.58;;;;
2019/09/01 02:31:41;;;;;;;4;3;;;;;;;18.02;82.39844;94898.58;;;;
2019/09/01 02:32:42;;;;;;;4;3;;;;;;;18.02;82.39844;94898.58;;;;
2019/09/01 02:33:43;;;;;;;4.300001;3.1;;;;;;;18.08;82.41113;94891.39;;;;
2019/09/01 02:34:44;;;;;;;4.300001;3.1;;;;;;;18.08;82.41113;94891.39;;;;
2019/09/01 02:35:46;;;;;;;4.5;3.2;;;;;;;18.15;81.95605;94894.58;;;;
2019/09/01 02:36:47;;;;;;;4.5;3.2;;;;;;;18.15;81.95605;94894.58;;;;
2019/09/01 02:37:48;;;;;;;4.5;3.2;;;;;;;18.15;81.95605;94894.58;;;;
2019/09/01 02:38:49;;;;;;;3.4;3.05;;;;;;;18.22;81.87012;94892.88;;;;
2019/09/01 02:39:50;;;;;;;3.4;3.05;;;;;;;18.22;81.87012;94892.88;;;;
2019/09/01 02:40:51;;;;;;;3.4;3.05;;;;;;;18.22;81.87012;94892.88;;;;
2019/09/01 02:41:52;;;;;;;3.15;2.900001;;;;;;;18.29;81.44922;94895.65;;;;
2019/09/01 02:42:53;;;;;;;3.15;2.900001;;;;;;;18.29;81.44922;94895.65;;;;
2019/09/01 02:43:55;;;;;;;5.05;2.95;;;;;;;18.34;81.29492;94891.07;;;;
2019/09/01 02:44:56;;;;;;;5.05;2.95;;;;;;;18.34;81.29492;94891.07;;;;
2019/09/01 02:45:57;;;;;;;5.05;2.95;;;;;;;18.34;81.29492;94891.07;;;;
2019/09/01 02:46:58;;;;;;;3.7;3.05;;;;;;;18.39;81.20605;94891.82;;;;
2019/09/01 02:47:59;;;;;;;3.7;3.05;;;;;;;18.39;81.20605;94891.82;;;;
2019/09/01 02:49:00;;;;;;;3.25;2.95;;;;;;;18.43;81.1582;94891.53;;;;
2019/09/01 02:50:02;;;;;;;3.25;2.95;;;;;;;18.43;81.1582;94891.53;;;;
2019/09/01 02:51:03;;;;;;;3.25;2.95;;;;;;;18.43;81.1582;94891.53;;;;
2019/09/01 02:52:04;;;;;;;4.15;3.2;;;;;;;18.46;81.21973;94888.61;;;;
2019/09/01 02:53:05;;;;;;;4.15;3.2;;;;;;;18.46;81.21973;94888.61;;;;
2019/09/01 02:54:07;;;;;;;4.15;3.2;;;;;;;18.46;81.21973;94888.61;;;;
2019/09/01 02:55:08;;;;;;;3.75;3.05;;;;;;;18.49;81.49707;94887.22;;;;
2019/09/01 02:56:11;;;;;;;3.75;3.05;;;;;;;18.49;81.49707;94887.22;;;;
2019/09/01 02:57:12;;;;;;;3.05;2.8;;;;;;;18.5;81.42188;94891.02;;;;
2019/09/01 02:58:13;;;;;;;3.05;2.8;;;;;;;18.5;81.42188;94891.02;;;;
2019/09/01 02:59:15;;;;;;;3.05;2.8;;;;;;;18.5;81.42188;94891.02;;;;
2019/09/01 03:00:16;;;;;;;3.7;3.05;;;;;;;18.51;81.52051;94885.97;;;;
2019/09/01 03:01:17;;;;;;;3.7;3.05;;;;;;;18.51;81.52051;94885.97;;;;
2019/09/01 03:02:18;;;;;;;3.6;3.2;;;;;;;18.5;81.57422;94890.61;;;;
2019/09/01 03:03:20;;;;;;;3.6;3.2;;;;;;;18.5;81.57422;94890.61;;;;
2019/09/01 03:04:21;;;;;;;3.6;3.2;;;;;;;18.5;81.57422;94890.61;;;;
2019/09/01 03:05:22;;;;;;;3.3;3;;;;;;;18.49;81.72461;94889.95;;;;
2019/09/01 03:08:25;;;;;;;3.4;3.1;;;;;;;18.48;81.66895;94888.72;;;;
2019/09/01 03:09:26;;;;;;;3.4;3.1;;;;;;;18.48;81.66895;94888.72;;;;
2019/09/01 03:10:27;;;;;;;3.4;3.1;;;;;;;18.45;81.74023;94891.64;;;;
2019/09/01 03:11:29;;;;;;;3.4;3.1;;;;;;;18.45;81.74023;94891.64;;;;
2019/09/01 03:12:30;;;;;;;3.4;3.1;;;;;;;18.45;81.74023;94891.64;;;;
2019/09/01 03:13:31;;;;;;;3.4;3.1;;;;;;;18.45;81.74023;94891.64;;;;
2019/09/01 03:14:33;;;;;;;3.4;3.1;;;;;;;18.45;81.74023;94891.64;;;;
2019/09/01 03:15:34;;;;;;;3.4;3.1;;;;;;;18.45;81.74023;94891.64;;;;
2019/09/01 03:16:37;;;;;;;3.4;3.1;;;;;;;18.45;81.74023;94891.64;;;;
2019/09/01 03:17:38;;;;;;;3.4;3.1;;;;;;;18.45;81.74023;94891.64;;;;
2019/09/01 03:18:39;;;;;;;3.4;3.1;;;;;;;18.45;81.74023;94891.64;;;;
2019/09/01 03:19:40;;;;;;;3.4;3.1;;;;;;;18.45;81.74023;94891.64;;;;
2019/09/01 03:20:41;;;;;;;3.4;3.1;;;;;;;18.45;81.74023;94891.64;;;;
2019/09/01 03:21:42;;;;;;;3.1;2.8;;;;;;;17.99;81.24219;94889.59;;;;
2019/09/01 03:22:44;;;;;;;3.1;2.8;;;;;;;17.99;81.24219;94889.59;;;;
2019/09/01 03:23:45;;;;;;;4.45;3.2;;;;;;;17.94;82.16797;94892.8;;;;
2019/09/01 03:24:46;;;;;;;4.45;3.2;;;;;;;17.94;82.16797;94892.8;;;;
2019/09/01 03:25:47;;;;;;;4.45;3.2;;;;;;;17.94;82.16797;94892.8;;;;
2019/09/01 03:26:48;;;;;;;3.849999;3.2;;;;;;;17.95;82.42871;94894.98;;;;
2019/09/01 03:27:50;;;;;;;3.849999;3.2;;;;;;;17.95;82.42871;94894.98;;;;
2019/09/01 03:28:51;;;;;;;3.85;3.1;;;;;;;17.95;82.74512;94910.42;;;;
2019/09/01 03:29:52;;;;;;;3.85;3.1;;;;;;;17.95;82.74512;94910.42;;;;
2019/09/01 03:30:53;;;;;;;3.85;3.1;;;;;;;17.95;82.74512;94910.42;;;;
2019/09/01 03:31:54;;;;;;;4.1;3.25;;;;;;;17.94;83.02344;94911.1;;;;
2019/09/01 03:32:56;;;;;;;4.1;3.25;;;;;;;17.94;83.02344;94911.1;;;;
2019/09/01 03:33:57;;;;;;;4.1;3.25;;;;;;;17.94;83.02344;94911.1;;;;
2019/09/01 03:34:58;;;;;;;3.5;3.1;;;;;;;17.92;83.31348;94907.87;;;;
2019/09/01 03:35:59;;;;;;;3.5;3.1;;;;;;;17.92;83.31348;94907.87;;;;
2019/09/01 03:37:00;;;;;;;4.200001;3.15;;;;;;;17.89;83.35156;94921.55;;;;
2019/09/01 03:38:02;;;;;;;4.200001;3.15;;;;;;;17.89;83.35156;94921.55;;;;
2019/09/01 03:39:04;;;;;;;4.200001;3.15;;;;;;;17.89;83.35156;94921.55;;;;
2019/09/01 03:40:05;;;;;;;4.049999;3.299999;;;;;;;17.86;83.33496;94913.53;;;;
2019/09/01 03:41:07;;;;;;;4.049999;3.299999;;;;;;;17.86;83.33496;94913.53;;;;
2019/09/01 03:42:09;;;;;;;4.049999;3.299999;;;;;;;17.86;83.33496;94913.53;;;;
2019/09/01 03:43:10;;;;;;;4.049999;3.299999;;;;;;;17.86;83.33496;94913.53;;;;
2019/09/01 03:44:11;;;;;;;4.049999;3.299999;;;;;;;17.86;83.33496;94913.53;;;;
2019/09/01 03:45:12;;;;;;;4.049999;3.299999;;;;;;;17.86;83.33496;94913.53;;;;
2019/09/01 03:46:14;;;;;;;4.049999;3.299999;;;;;;;17.86;83.33496;94913.53;;;;
2019/09/01 03:47:15;;;;;;;4.049999;3.299999;;;;;;;17.86;83.33496;94913.53;;;;
2019/09/01 03:48:16;;;;;;;4.049999;3.299999;;;;;;;17.86;83.33496;94913.53;;;;
2019/09/01 03:49:17;;;;;;;4.049999;3.299999;;;;;;;17.86;83.33496;94913.53;;;;
2019/09/01 03:50:19;;;;;;;3.349999;3.05;;;;;;;17.44;82.7373;94907.78;;;;
2019/09/01 03:51:21;;;;;;;3.349999;3.05;;;;;;;17.44;82.7373;94907.78;;;;
2019/09/01 03:52:22;;;;;;;3.349999;3.05;;;;;;;17.44;82.7373;94907.78;;;;
2019/09/01 03:53:23;;;;;;;3.55;3.25;;;;;;;17.41;83.74902;94904.81;;;;
2019/09/01 03:54:24;;;;;;;3.55;3.25;;;;;;;17.41;83.74902;94904.81;;;;
2019/09/01 03:55:26;;;;;;;3.55;3.25;;;;;;;17.41;83.74902;94904.81;;;;
2019/09/01 03:56:30;;;;;;;3.55;3.25;;;;;;;17.41;83.74902;94904.81;;;;
2019/09/01 03:57:31;;;;;;;3.55;3.25;;;;;;;17.41;83.74902;94904.81;;;;
2019/09/01 03:58:32;;;;;;;3.55;3.25;;;;;;;17.41;83.74902;94904.81;;;;
2019/09/01 03:59:33;;;;;;;3.55;3.25;;;;;;;17.41;83.74902;94904.81;;;;
2019/09/01 04:00:35;;;;;;;3.55;3.25;;;;;;;17.41;83.74902;94904.81;;;;
2019/09/01 04:01:36;;;;;;;3.55;3.25;;;;;;;17.41;83.74902;94904.81;;;;
2019/09/01 04:02:37;;;;;;;3.55;3.25;;;;;;;17.41;83.74902;94904.81;;;;
2019/09/01 04:03:39;;;;;;;3.5;3;;;;;;;17.16;83.23535;94912.27;;;;
2019/09/01 04:04:40;;;;;;;3.5;3;;;;;;;17.16;83.23535;94912.27;;;;
2019/09/01 04:05:41;;;;;;;3.5;3;;;;;;;17.16;83.23535;94912.27;;;;
2019/09/01 04:06:42;;;;;;;3.6;3.3;;;;;;;17.15;84.49219;94913.36;;;;
2019/09/01 04:07:44;;;;;;;3.6;3.3;;;;;;;17.15;84.49219;94913.36;;;;
2019/09/01 04:08:45;;;;;;;4.5;3.35;;;;;;;17.18;85.29883;94913.19;;;;
2019/09/01 04:09:46;;;;;;;4.5;3.35;;;;;;;17.18;85.29883;94913.19;;;;
2019/09/01 04:10:47;;;;;;;4.5;3.35;;;;;;;17.18;85.29883;94913.19;;;;
2019/09/01 04:11:48;;;;;;;4.5;3.35;;;;;;;17.18;85.29883;94913.19;;;;
2019/09/01 04:12:49;;;;;;;4.5;3.35;;;;;;;17.18;85.29883;94913.19;;;;
2019/09/01 04:13:51;;;;;;;4.5;3.35;;;;;;;17.18;85.29883;94913.19;;;;
2019/09/01 04:14:52;;;;;;;4.5;3.35;;;;;;;17.18;85.29883;94913.19;;;;
2019/09/01 04:15:53;;;;;;;4.5;3.35;;;;;;;17.18;85.29883;94913.19;;;;
2019/09/01 04:16:54;;;;;;;4.5;3.35;;;;;;;17.18;85.29883;94913.19;;;;
2019/09/01 04:17:55;;;;;;;4.5;3.35;;;;;;;17.18;85.29883;94913.19;;;;
2019/09/01 04:18:56;;;;;;;4.5;3.35;;;;;;;17.18;85.29883;94913.19;;;;
2019/09/01 04:19:58;;;;;;;3.55;3;;;;;;;16.95;84.69043;94912.55;;;;
2019/09/01 04:20:59;;;;;;;3.55;3;;;;;;;16.95;84.69043;94912.55;;;;
2019/09/01 04:22:00;;;;;;;3.55;3.05;;;;;;;16.94;85.57617;94918.3;;;;
2019/09/01 04:23:01;;;;;;;3.55;3.05;;;;;;;16.94;85.57617;94918.3;;;;
2019/09/01 04:24:02;;;;;;;3.55;3.05;;;;;;;16.94;85.57617;94918.3;;;;
2019/09/01 04:25:04;;;;;;;3.400001;3.1;;;;;;;16.95;86.43457;94906.15;;;;
2019/09/01 04:26:06;;;;;;;3.400001;3.1;;;;;;;16.95;86.43457;94906.15;;;;
2019/09/01 04:27:07;;;;;;;3.400001;3.1;;;;;;;16.95;86.43457;94906.15;;;;
2019/09/01 04:28:08;;;;;;;3.400001;3.1;;;;;;;16.95;86.43457;94906.15;;;;
2019/09/01 04:29:10;;;;;;;3.400001;3.1;;;;;;;16.95;86.43457;94906.15;;;;
2019/09/01 04:30:11;;;;;;;3.400001;3.1;;;;;;;16.95;86.43457;94906.15;;;;
2019/09/01 04:31:13;;;;;;;3.400001;3.1;;;;;;;16.95;86.43457;94906.15;;;;
2019/09/01 04:32:14;;;;;;;3.400001;3.1;;;;;;;16.95;86.43457;94906.15;;;;
2019/09/01 04:33:15;;;;;;;3.400001;3.1;;;;;;;16.95;86.43457;94906.15;;;;
2019/09/01 04:34:17;;;;;;;3.400001;3.1;;;;;;;16.95;86.43457;94906.15;;;;
2019/09/01 04:35:18;;;;;;;3.75;3.45;;;;;;;16.62;85.96973;94911.41;;;;
2019/09/01 04:36:23;;;;;;;3.75;3.45;;;;;;;16.62;85.96973;94911.41;;;;
2019/09/01 04:37:24;;;;;;;3.75;3.45;;;;;;;16.62;85.96973;94911.41;;;;
2019/09/01 04:38:25;;;;;;;3.85;3.5;;;;;;;16.61;87.23145;94910.35;;;;
2019/09/01 04:39:26;;;;;;;3.85;3.5;;;;;;;16.61;87.23145;94910.35;;;;
2019/09/01 04:40:28;;;;;;;3.85;3.5;;;;;;;16.61;87.23145;94910.35;;;;
2019/09/01 04:41:29;;;;;;;3.85;3.5;;;;;;;16.61;87.23145;94910.35;;;;
2019/09/01 04:42:31;;;;;;;3.85;3.5;;;;;;;16.61;87.23145;94910.35;;;;
2019/09/01 04:43:32;;;;;;;3.85;3.5;;;;;;;16.61;87.23145;94910.35;;;;
2019/09/01 04:44:33;;;;;;;3.85;3.5;;;;;;;16.61;87.23145;94910.35;;;;
2019/09/01 04:45:34;;;;;;;3.85;3.5;;;;;;;16.61;87.23145;94910.35;;;;
2019/09/01 04:46:37;;;;;;;3.85;3.5;;;;;;;16.61;87.23145;94910.35;;;;
2019/09/01 04:47:38;;;;;;;3.85;3.5;;;;;;;16.61;87.23145;94910.35;;;;
2019/09/01 04:48:39;;;;;;;5.349998;3.400001;;;;;;;16.45;86.87598;94900.59;;;;
2019/09/01 04:49:40;;;;;;;5.349998;3.400001;;;;;;;16.45;86.87598;94900.59;;;;
2019/09/01 04:50:41;;;;;;;5.349998;3.400001;;;;;;;16.45;86.87598;94900.59;;;;
2019/09/01 04:51:42;;;;;;;4.5;3.400001;;;;;;;16.49;88.0625;94898.97;;;;
2019/09/01 04:52:44;;;;;;;4.5;3.400001;;;;;;;16.49;88.0625;94898.97;;;;
2019/09/01 04:53:45;;;;;;;4.5;3.400001;;;;;;;16.49;88.0625;94898.97;;;;
2019/09/01 04:54:46;;;;;;;4.5;3.400001;;;;;;;16.49;88.0625;94898.97;;;;
2019/09/01 04:55:47;;;;;;;4.5;3.400001;;;;;;;16.49;88.0625;94898.97;;;;
2019/09/01 04:56:48;;;;;;;4.5;3.400001;;;;;;;16.49;88.0625;94898.97;;;;
2019/09/01 04:57:49;;;;;;;4.5;3.400001;;;;;;;16.49;88.0625;94898.97;;;;
2019/09/01 04:58:50;;;;;;;4.5;3.400001;;;;;;;16.49;88.0625;94898.97;;;;
2019/09/01 04:59:51;;;;;;;4.5;3.400001;;;;;;;16.49;88.0625;94898.97;;;;
2019/09/01 05:00:53;;;;;;;4.5;3.400001;;;;;;;16.49;88.0625;94898.97;;;;
2019/09/01 05:01:54;;;;;;;4.699999;3.75;;;;;;;16.5;87.67578;94913.68;;;;
2019/09/01 05:02:55;;;;;;;4.699999;3.75;;;;;;;16.5;87.67578;94913.68;;;;
2019/09/01 05:03:56;;;;;;;4.699999;3.75;;;;;;;16.5;87.67578;94913.68;;;;
2019/09/01 05:04:57;;;;;;;4.05;3.6;;;;;;;16.58;89.05371;94910.38;;;;
2019/09/01 05:05:58;;;;;;;4.05;3.6;;;;;;;16.58;89.05371;94910.38;;;;
2019/09/01 05:07:00;;;;;;;4.05;3.6;;;;;;;16.58;89.05371;94910.38;;;;
2019/09/01 05:08:01;;;;;;;4.05;3.6;;;;;;;16.58;89.05371;94910.38;;;;
2019/09/01 05:09:03;;;;;;;4.05;3.6;;;;;;;16.58;89.05371;94910.38;;;;
2019/09/01 05:10:04;;;;;;;4.05;3.6;;;;;;;16.58;89.05371;94910.38;;;;
2019/09/01 05:11:07;;;;;;;4.05;3.6;;;;;;;16.58;89.05371;94910.38;;;;
2019/09/01 05:12:08;;;;;;;4.05;3.6;;;;;;;16.58;89.05371;94910.38;;;;
2019/09/01 05:13:09;;;;;;;4.05;3.6;;;;;;;16.58;89.05371;94910.38;;;;
2019/09/01 05:14:10;;;;;;;4.05;3.6;;;;;;;16.58;89.05371;94910.38;;;;
2019/09/01 05:15:12;;;;;;;3.900001;3.35;;;;;;;16.73;88.31445;94923.07;;;;
2019/09/01 05:16:15;;;;;;;3.900001;3.35;;;;;;;16.73;88.31445;94923.07;;;;
2019/09/01 05:17:17;;;;;;;3.900001;3.35;;;;;;;16.73;88.31445;94923.07;;;;
2019/09/01 05:18:18;;;;;;;4;3.6;;;;;;;16.85;89.04199;94925.33;;;;
2019/09/01 05:19:19;;;;;;;4;3.6;;;;;;;16.85;89.04199;94925.33;;;;
2019/09/01 05:20:20;;;;;;;4;3.6;;;;;;;16.85;89.04199;94925.33;;;;
2019/09/01 05:21:24;;;;;;;4;3.6;;;;;;;16.85;89.04199;94925.33;;;;
2019/09/01 05:22:25;;;;;;;4;3.6;;;;;;;16.85;89.04199;94925.33;;;;
2019/09/01 05:23:26;;;;;;;4;3.6;;;;;;;16.85;89.04199;94925.33;;;;
2019/09/01 05:24:28;;;;;;;4;3.6;;;;;;;16.85;89.04199;94925.33;;;;
2019/09/01 05:25:29;;;;;;;4;3.6;;;;;;;16.85;89.04199;94925.33;;;;
2019/09/01 05:26:30;;;;;;;4;3.6;;;;;;;16.85;89.04199;94925.33;;;;
2019/09/01 05:27:31;;;;;;;4;3.6;;;;;;;16.85;89.04199;94925.33;;;;
2019/09/01 05:28:32;;;;;;;4.1;3.45;;;;;;;17.29;87.62598;94944.75;;;;
2019/09/01 05:29:33;;;;;;;4.1;3.45;;;;;;;17.29;87.62598;94944.75;;;;
2019/09/01 05:30:34;;;;;;;4.1;3.45;;;;;;;17.29;87.62598;94944.75;;;;
2019/09/01 05:31:42;;;;;;;4.1;3.45;;;;;;;17.29;87.62598;94944.75;;;;
2019/09/01 05:32:43;;;;;;;4.1;3.45;;;;;;;17.29;87.62598;94944.75;;;;
2019/09/01 05:33:44;;;;;;;4.1;3.45;;;;;;;17.29;87.62598;94944.75;;;;
2019/09/01 05:34:45;;;;;;;4.1;3.45;;;;;;;17.29;87.62598;94944.75;;;;
2019/09/01 05:35:46;;;;;;;4.1;3.45;;;;;;;17.29;87.62598;94944.75;;;;
2019/09/01 05:36:48;;;;;;;4.1;3.45;;;;;;;17.29;87.62598;94944.75;;;;
2019/09/01 05:37:49;;;;;;;4.1;3.45;;;;;;;17.29;87.62598;94944.75;;;;
2019/09/01 05:38:50;;;;;;;4.3;3.15;;;;;;;17.69;86.81543;94959.03;;;;
2019/09/01 05:39:51;;;;;;;4.3;3.15;;;;;;;17.69;86.81543;94959.03;;;;
2019/09/01 05:40:52;;;;;;;4.3;3.15;;;;;;;17.69;86.81543;94959.03;;;;
2019/09/01 05:41:54;;;;;;;4.3;3.15;;;;;;;17.69;86.81543;94959.03;;;;
2019/09/01 05:42:55;;;;;;;4.3;3.15;;;;;;;17.69;86.81543;94959.03;;;;
2019/09/01 05:43:56;;;;;;;4.3;3.15;;;;;;;17.69;86.81543;94959.03;;;;
2019/09/01 05:44:57;;;;;;;4.3;3.15;;;;;;;17.69;86.81543;94959.03;;;;
2019/09/01 05:45:58;;;;;;;4.3;3.15;;;;;;;17.69;86.81543;94959.03;;;;
2019/09/01 05:46:59;;;;;;;4.3;3.15;;;;;;;17.69;86.81543;94959.03;;;;
2019/09/01 05:48:00;;;;;;;4.3;3.15;;;;;;;17.69;86.81543;94959.03;;;;
2019/09/01 05:49:02;;;;;;;4.3;3.15;;;;;;;17.69;86.81543;94959.03;;;;
2019/09/01 05:50:04;;;;;;;3.4;2.95;;;;;;;17.85;85.99121;94969.24;;;;
2019/09/01 05:51:06;;;;;;;3.4;2.95;;;;;;;17.85;85.99121;94969.24;;;;
2019/09/01 05:52:07;;;;;;;3.3;3.1;;;;;;;17.98;86.41602;94968.57;;;;